sensor_id;sensor_type;location;lat;lon;timestamp;P1;durP1;ratioP1;P2;durP2;ratioP2
37517;SDS011;23366;52.498;13.446;2023-07-20T00:00:24;4.25;;;1.63;;
37517;SDS011;23366;52.498;13.446;2023-07-20T00:02:50;8.25;;;2.88;;
37517;SDS011;23366;52.498;13.446;2023-07-20T00:05:16;2.17;;;1.77;;
37517;SDS011;23366;52.498;13.446;2023-07-20T00:07:46;3.42;;;1.95;;
37517;SDS011;23366;52.498;13.446;2023-07-20T00:10:12;4.35;;;2.38;;
37517;SDS011;23366;52.498;13.446;2023-07-20T00:12:37;1.98;;;1.73;;
37517;SDS011;23366;52.498;13.446;2023-07-20T00:15:03;2.30;;;2.03;;
37517;SDS011;23366;52.498;13.446;2023-07-20T00:17:29;2.55;;;1.85;;
37517;SDS011;23366;52.498;13.446;2023-07-20T00:19:54;1.92;;;1.83;;
37517;SDS011;23366;52.498;13.446;2023-07-20T00:22:20;2.58;;;1.75;;
37517;SDS011;23366;52.498;13.446;2023-07-20T00:24:45;7.50;;;2.67;;
37517;SDS011;23366;52.498;13.446;2023-07-20T00:27:11;4.57;;;2.45;;
37517;SDS011;23366;52.498;13.446;2023-07-20T00:29:36;4.38;;;2.30;;
37517;SDS011;23366;52.498;13.446;2023-07-20T00:32:02;5.38;;;3.08;;
37517;SDS011;23366;52.498;13.446;2023-07-20T00:34:30;3.15;;;2.15;;
37517;SDS011;23366;52.498;13.446;2023-07-20T00:36:56;5.35;;;3.05;;
37517;SDS011;23366;52.498;13.446;2023-07-20T00:39:21;3.13;;;2.17;;
37517;SDS011;23366;52.498;13.446;2023-07-20T00:41:47;3.20;;;1.80;;
37517;SDS011;23366;52.498;13.446;2023-07-20T00:44:14;1.92;;;1.70;;
37517;SDS011;23366;52.498;13.446;2023-07-20T00:46:40;2.60;;;1.92;;
37517;SDS011;23366;52.498;13.446;2023-07-20T00:49:06;3.47;;;2.25;;
37517;SDS011;23366;52.498;13.446;2023-07-20T00:51:32;2.65;;;2.05;;
37517;SDS011;23366;52.498;13.446;2023-07-20T00:53:58;5.80;;;2.65;;
37517;SDS011;23366;52.498;13.446;2023-07-20T00:56:24;3.25;;;2.17;;
37517;SDS011;23366;52.498;13.446;2023-07-20T00:58:49;7.05;;;2.78;;
37517;SDS011;23366;52.498;13.446;2023-07-20T01:01:16;4.97;;;2.47;;
37517;SDS011;23366;52.498;13.446;2023-07-20T01:03:41;5.55;;;2.88;;
37517;SDS011;23366;52.498;13.446;2023-07-20T01:09:01;3.00;;;2.08;;
37517;SDS011;23366;52.498;13.446;2023-07-20T01:11:39;7.75;;;2.15;;
37517;SDS011;23366;52.498;13.446;2023-07-20T01:14:34;2.38;;;2.15;;
37517;SDS011;23366;52.498;13.446;2023-07-20T01:17:00;2.47;;;2.28;;
37517;SDS011;23366;52.498;13.446;2023-07-20T01:19:26;3.88;;;2.58;;
37517;SDS011;23366;52.498;13.446;2023-07-20T01:21:57;3.05;;;2.75;;
37517;SDS011;23366;52.498;13.446;2023-07-20T01:27:53;4.10;;;1.90;;
37517;SDS011;23366;52.498;13.446;2023-07-20T01:33:34;3.35;;;1.95;;
37517;SDS011;23366;52.498;13.446;2023-07-20T01:36:01;7.50;;;2.50;;
37517;SDS011;23366;52.498;13.446;2023-07-20T01:38:27;2.42;;;2.15;;
37517;SDS011;23366;52.498;13.446;2023-07-20T01:40:53;3.10;;;2.28;;
37517;SDS011;23366;52.498;13.446;2023-07-20T01:43:19;4.53;;;2.15;;
37517;SDS011;23366;52.498;13.446;2023-07-20T01:45:45;6.25;;;2.55;;
37517;SDS011;23366;52.498;13.446;2023-07-20T01:48:10;2.80;;;2.25;;
37517;SDS011;23366;52.498;13.446;2023-07-20T01:50:36;2.65;;;2.00;;
37517;SDS011;23366;52.498;13.446;2023-07-20T01:53:02;5.28;;;2.22;;
37517;SDS011;23366;52.498;13.446;2023-07-20T01:55:27;3.40;;;2.47;;
37517;SDS011;23366;52.498;13.446;2023-07-20T01:57:54;3.60;;;2.33;;
37517;SDS011;23366;52.498;13.446;2023-07-20T02:00:25;5.55;;;2.75;;
37517;SDS011;23366;52.498;13.446;2023-07-20T02:02:50;3.90;;;2.50;;
37517;SDS011;23366;52.498;13.446;2023-07-20T02:05:16;2.22;;;2.03;;
37517;SDS011;23366;52.498;13.446;2023-07-20T02:07:42;3.17;;;2.47;;
37517;SDS011;23366;52.498;13.446;2023-07-20T02:10:07;2.90;;;2.50;;
37517;SDS011;23366;52.498;13.446;2023-07-20T02:12:33;3.20;;;1.98;;
37517;SDS011;23366;52.498;13.446;2023-07-20T02:14:59;3.47;;;2.55;;
37517;SDS011;23366;52.498;13.446;2023-07-20T02:17:24;2.60;;;2.15;;
37517;SDS011;23366;52.498;13.446;2023-07-20T02:19:52;3.72;;;2.58;;
37517;SDS011;23366;52.498;13.446;2023-07-20T02:22:17;3.17;;;2.80;;
37517;SDS011;23366;52.498;13.446;2023-07-20T02:24:43;4.00;;;2.28;;
37517;SDS011;23366;52.498;13.446;2023-07-20T02:27:08;3.38;;;2.63;;
37517;SDS011;23366;52.498;13.446;2023-07-20T02:29:34;4.75;;;2.85;;
37517;SDS011;23366;52.498;13.446;2023-07-20T02:32:00;5.47;;;2.35;;
37517;SDS011;23366;52.498;13.446;2023-07-20T02:34:26;2.75;;;2.08;;
37517;SDS011;23366;52.498;13.446;2023-07-20T02:36:53;4.78;;;2.42;;
37517;SDS011;23366;52.498;13.446;2023-07-20T02:39:21;9.95;;;3.55;;
37517;SDS011;23366;52.498;13.446;2023-07-20T02:41:47;4.32;;;2.83;;
37517;SDS011;23366;52.498;13.446;2023-07-20T02:44:13;7.05;;;2.85;;
37517;SDS011;23366;52.498;13.446;2023-07-20T02:46:39;4.80;;;3.30;;
37517;SDS011;23366;52.498;13.446;2023-07-20T02:49:04;7.45;;;4.03;;
37517;SDS011;23366;52.498;13.446;2023-07-20T02:51:30;5.63;;;3.60;;
37517;SDS011;23366;52.498;13.446;2023-07-20T02:53:55;5.22;;;3.78;;
37517;SDS011;23366;52.498;13.446;2023-07-20T02:56:21;4.70;;;3.42;;
37517;SDS011;23366;52.498;13.446;2023-07-20T02:58:47;6.00;;;4.25;;
37517;SDS011;23366;52.498;13.446;2023-07-20T03:01:13;4.28;;;3.70;;
37517;SDS011;23366;52.498;13.446;2023-07-20T03:03:40;5.10;;;3.60;;
37517;SDS011;23366;52.498;13.446;2023-07-20T03:06:10;8.37;;;3.87;;
37517;SDS011;23366;52.498;13.446;2023-07-20T03:08:37;4.93;;;3.55;;
37517;SDS011;23366;52.498;13.446;2023-07-20T03:11:03;8.02;;;4.00;;
37517;SDS011;23366;52.498;13.446;2023-07-20T03:13:31;5.30;;;4.07;;
37517;SDS011;23366;52.498;13.446;2023-07-20T03:15:57;4.55;;;3.83;;
37517;SDS011;23366;52.498;13.446;2023-07-20T03:18:22;6.55;;;4.53;;
37517;SDS011;23366;52.498;13.446;2023-07-20T03:20:48;4.00;;;3.50;;
37517;SDS011;23366;52.498;13.446;2023-07-20T03:23:13;7.57;;;4.07;;
37517;SDS011;23366;52.498;13.446;2023-07-20T03:25:40;3.33;;;3.03;;
37517;SDS011;23366;52.498;13.446;2023-07-20T03:28:05;8.32;;;4.20;;
37517;SDS011;23366;52.498;13.446;2023-07-20T03:30:31;4.97;;;4.00;;
37517;SDS011;23366;52.498;13.446;2023-07-20T03:32:57;5.88;;;4.38;;
37517;SDS011;23366;52.498;13.446;2023-07-20T03:35:22;6.25;;;4.22;;
37517;SDS011;23366;52.498;13.446;2023-07-20T03:37:48;7.43;;;4.82;;
37517;SDS011;23366;52.498;13.446;2023-07-20T03:40:13;7.22;;;4.05;;
37517;SDS011;23366;52.498;13.446;2023-07-20T03:42:40;6.78;;;4.57;;
37517;SDS011;23366;52.498;13.446;2023-07-20T03:45:06;4.22;;;3.55;;
37517;SDS011;23366;52.498;13.446;2023-07-20T03:47:32;5.20;;;3.75;;
37517;SDS011;23366;52.498;13.446;2023-07-20T03:49:58;5.43;;;4.43;;
37517;SDS011;23366;52.498;13.446;2023-07-20T03:52:23;7.65;;;4.00;;
37517;SDS011;23366;52.498;13.446;2023-07-20T03:54:49;8.82;;;4.57;;
37517;SDS011;23366;52.498;13.446;2023-07-20T03:57:16;5.70;;;4.75;;
37517;SDS011;23366;52.498;13.446;2023-07-20T03:59:44;7.85;;;4.70;;
37517;SDS011;23366;52.498;13.446;2023-07-20T04:02:11;5.68;;;4.22;;
37517;SDS011;23366;52.498;13.446;2023-07-20T04:04:36;7.13;;;4.20;;
37517;SDS011;23366;52.498;13.446;2023-07-20T04:07:04;6.57;;;4.10;;
37517;SDS011;23366;52.498;13.446;2023-07-20T04:09:31;7.18;;;3.63;;
37517;SDS011;23366;52.498;13.446;2023-07-20T04:11:57;5.65;;;3.95;;
37517;SDS011;23366;52.498;13.446;2023-07-20T04:14:22;4.95;;;3.05;;
37517;SDS011;23366;52.498;13.446;2023-07-20T04:16:48;5.15;;;3.35;;
37517;SDS011;23366;52.498;13.446;2023-07-20T04:19:13;3.50;;;2.80;;
37517;SDS011;23366;52.498;13.446;2023-07-20T04:21:39;7.47;;;3.25;;
37517;SDS011;23366;52.498;13.446;2023-07-20T04:24:06;3.45;;;3.13;;
37517;SDS011;23366;52.498;13.446;2023-07-20T04:26:31;3.50;;;3.20;;
37517;SDS011;23366;52.498;13.446;2023-07-20T04:28:57;3.42;;;3.00;;
37517;SDS011;23366;52.498;13.446;2023-07-20T04:31:24;3.92;;;3.20;;
37517;SDS011;23366;52.498;13.446;2023-07-20T04:33:50;4.63;;;3.45;;
37517;SDS011;23366;52.498;13.446;2023-07-20T04:36:15;7.60;;;3.90;;
37517;SDS011;23366;52.498;13.446;2023-07-20T04:38:44;5.65;;;3.58;;
37517;SDS011;23366;52.498;13.446;2023-07-20T04:41:13;5.60;;;3.65;;
37517;SDS011;23366;52.498;13.446;2023-07-20T04:43:42;4.22;;;3.42;;
37517;SDS011;23366;52.498;13.446;2023-07-20T04:46:08;5.18;;;3.70;;
37517;SDS011;23366;52.498;13.446;2023-07-20T04:48:34;5.80;;;3.80;;
37517;SDS011;23366;52.498;13.446;2023-07-20T04:50:59;6.40;;;4.00;;
37517;SDS011;23366;52.498;13.446;2023-07-20T04:53:25;4.57;;;3.40;;
37517;SDS011;23366;52.498;13.446;2023-07-20T04:55:50;5.50;;;3.58;;
37517;SDS011;23366;52.498;13.446;2023-07-20T04:58:17;5.18;;;3.20;;
37517;SDS011;23366;52.498;13.446;2023-07-20T05:00:43;5.20;;;3.83;;
37517;SDS011;23366;52.498;13.446;2023-07-20T05:03:09;5.05;;;3.05;;
37517;SDS011;23366;52.498;13.446;2023-07-20T05:05:37;3.72;;;3.08;;
37517;SDS011;23366;52.498;13.446;2023-07-20T05:08:03;5.22;;;3.33;;
37517;SDS011;23366;52.498;13.446;2023-07-20T05:10:29;3.88;;;3.13;;
37517;SDS011;23366;52.498;13.446;2023-07-20T05:12:54;4.63;;;3.53;;
37517;SDS011;23366;52.498;13.446;2023-07-20T05:15:20;4.65;;;3.42;;
37517;SDS011;23366;52.498;13.446;2023-07-20T05:17:45;4.65;;;2.92;;
37517;SDS011;23366;52.498;13.446;2023-07-20T05:20:13;3.88;;;2.72;;
37517;SDS011;23366;52.498;13.446;2023-07-20T05:22:39;3.90;;;2.95;;
37517;SDS011;23366;52.498;13.446;2023-07-20T05:25:08;3.45;;;2.53;;
37517;SDS011;23366;52.498;13.446;2023-07-20T05:27:36;3.28;;;2.78;;
37517;SDS011;23366;52.498;13.446;2023-07-20T05:30:02;2.50;;;2.08;;
37517;SDS011;23366;52.498;13.446;2023-07-20T05:32:28;2.78;;;2.40;;
37517;SDS011;23366;52.498;13.446;2023-07-20T05:34:53;2.53;;;1.80;;
37517;SDS011;23366;52.498;13.446;2023-07-20T05:37:19;3.40;;;1.38;;
37517;SDS011;23366;52.498;13.446;2023-07-20T05:39:45;1.90;;;1.75;;
37517;SDS011;23366;52.498;13.446;2023-07-20T05:42:10;1.33;;;1.23;;
37517;SDS011;23366;52.498;13.446;2023-07-20T05:44:36;1.20;;;1.10;;
37517;SDS011;23366;52.498;13.446;2023-07-20T05:47:01;1.90;;;1.80;;
37517;SDS011;23366;52.498;13.446;2023-07-20T05:49:29;2.28;;;1.85;;
37517;SDS011;23366;52.498;13.446;2023-07-20T05:51:55;2.15;;;1.92;;
37517;SDS011;23366;52.498;13.446;2023-07-20T05:54:21;1.98;;;1.65;;
37517;SDS011;23366;52.498;13.446;2023-07-20T05:56:48;4.40;;;1.90;;
37517;SDS011;23366;52.498;13.446;2023-07-20T05:59:14;1.92;;;1.48;;
37517;SDS011;23366;52.498;13.446;2023-07-20T06:01:40;1.92;;;1.48;;
37517;SDS011;23366;52.498;13.446;2023-07-20T06:04:05;1.60;;;1.20;;
37517;SDS011;23366;52.498;13.446;2023-07-20T06:06:31;2.05;;;1.75;;
37517;SDS011;23366;52.498;13.446;2023-07-20T06:08:56;1.42;;;1.15;;
37517;SDS011;23366;52.498;13.446;2023-07-20T06:11:22;3.35;;;1.60;;
37517;SDS011;23366;52.498;13.446;2023-07-20T06:13:47;3.80;;;1.85;;
37517;SDS011;23366;52.498;13.446;2023-07-20T06:16:13;3.83;;;1.67;;
37517;SDS011;23366;52.498;13.446;2023-07-20T06:18:38;5.25;;;3.65;;
37517;SDS011;23366;52.498;13.446;2023-07-20T06:21:04;5.28;;;2.42;;
37517;SDS011;23366;52.498;13.446;2023-07-20T06:23:29;2.85;;;1.95;;
37517;SDS011;23366;52.498;13.446;2023-07-20T06:25:55;3.40;;;2.35;;
37517;SDS011;23366;52.498;13.446;2023-07-20T06:28:20;3.10;;;2.30;;
37517;SDS011;23366;52.498;13.446;2023-07-20T06:30:46;3.78;;;2.50;;
37517;SDS011;23366;52.498;13.446;2023-07-20T06:33:11;4.32;;;2.17;;
37517;SDS011;23366;52.498;13.446;2023-07-20T06:35:37;2.40;;;2.08;;
37517;SDS011;23366;52.498;13.446;2023-07-20T06:38:02;4.85;;;2.08;;
37517;SDS011;23366;52.498;13.446;2023-07-20T06:40:28;1.88;;;1.73;;
37517;SDS011;23366;52.498;13.446;2023-07-20T06:42:55;3.05;;;2.33;;
37517;SDS011;23366;52.498;13.446;2023-07-20T06:45:20;2.42;;;1.98;;
37517;SDS011;23366;52.498;13.446;2023-07-20T06:47:46;3.45;;;1.58;;
37517;SDS011;23366;52.498;13.446;2023-07-20T06:50:11;4.65;;;2.50;;
37517;SDS011;23366;52.498;13.446;2023-07-20T06:52:37;1.33;;;1.13;;
37517;SDS011;23366;52.498;13.446;2023-07-20T06:55:04;1.75;;;1.33;;
37517;SDS011;23366;52.498;13.446;2023-07-20T06:57:31;2.10;;;1.58;;
37517;SDS011;23366;52.498;13.446;2023-07-20T06:59:56;2.90;;;1.02;;
37517;SDS011;23366;52.498;13.446;2023-07-20T07:02:22;3.75;;;1.95;;
37517;SDS011;23366;52.498;13.446;2023-07-20T07:04:47;1.38;;;1.08;;
37517;SDS011;23366;52.498;13.446;2023-07-20T07:07:14;2.03;;;1.33;;
37517;SDS011;23366;52.498;13.446;2023-07-20T07:09:40;1.38;;;1.13;;
37517;SDS011;23366;52.498;13.446;2023-07-20T07:12:06;1.75;;;1.13;;
37517;SDS011;23366;52.498;13.446;2023-07-20T07:14:32;2.13;;;1.17;;
37517;SDS011;23366;52.498;13.446;2023-07-20T07:16:57;3.33;;;1.08;;
37517;SDS011;23366;52.498;13.446;2023-07-20T07:19:22;2.33;;;1.00;;
37517;SDS011;23366;52.498;13.446;2023-07-20T07:21:48;3.35;;;0.70;;
37517;SDS011;23366;52.498;13.446;2023-07-20T07:24:13;0.32;;;0.32;;
37517;SDS011;23366;52.498;13.446;2023-07-20T07:26:39;0.80;;;0.40;;
37517;SDS011;23366;52.498;13.446;2023-07-20T07:29:05;1.33;;;0.52;;
37517;SDS011;23366;52.498;13.446;2023-07-20T07:31:30;0.43;;;0.30;;
37517;SDS011;23366;52.498;13.446;2023-07-20T07:33:58;0.73;;;0.45;;
37517;SDS011;23366;52.498;13.446;2023-07-20T07:36:24;1.45;;;0.47;;
37517;SDS011;23366;52.498;13.446;2023-07-20T07:38:50;1.08;;;0.20;;
37517;SDS011;23366;52.498;13.446;2023-07-20T07:41:15;2.28;;;0.30;;
37517;SDS011;23366;52.498;13.446;2023-07-20T07:43:41;0.70;;;0.30;;
37517;SDS011;23366;52.498;13.446;2023-07-20T07:46:09;0.90;;;0.43;;
37517;SDS011;23366;52.498;13.446;2023-07-20T07:48:34;2.45;;;0.40;;
37517;SDS011;23366;52.498;13.446;2023-07-20T07:51:00;0.17;;;0.10;;
37517;SDS011;23366;52.498;13.446;2023-07-20T07:53:25;0.25;;;0.22;;
37517;SDS011;23366;52.498;13.446;2023-07-20T07:55:51;0.93;;;0.43;;
37517;SDS011;23366;52.498;13.446;2023-07-20T07:58:18;0.45;;;0.30;;
37517;SDS011;23366;52.498;13.446;2023-07-20T08:00:43;1.33;;;0.35;;
37517;SDS011;23366;52.498;13.446;2023-07-20T08:03:09;2.80;;;0.38;;
37517;SDS011;23366;52.498;13.446;2023-07-20T08:05:38;0.63;;;0.40;;
37517;SDS011;23366;52.498;13.446;2023-07-20T08:08:03;0.50;;;0.30;;
37517;SDS011;23366;52.498;13.446;2023-07-20T08:10:29;4.22;;;1.40;;
37517;SDS011;23366;52.498;13.446;2023-07-20T08:12:55;0.98;;;0.57;;
37517;SDS011;23366;52.498;13.446;2023-07-20T08:15:21;1.30;;;0.30;;
37517;SDS011;23366;52.498;13.446;2023-07-20T08:17:47;0.13;;;0.10;;
37517;SDS011;23366;52.498;13.446;2023-07-20T08:20:13;0.30;;;0.30;;
37517;SDS011;23366;52.498;13.446;2023-07-20T08:22:41;1.35;;;0.50;;
37517;SDS011;23366;52.498;13.446;2023-07-20T08:25:06;0.20;;;0.20;;
37517;SDS011;23366;52.498;13.446;2023-07-20T08:27:32;0.30;;;0.20;;
37517;SDS011;23366;52.498;13.446;2023-07-20T08:29:58;0.40;;;0.10;;
37517;SDS011;23366;52.498;13.446;2023-07-20T08:32:24;1.50;;;0.10;;
37517;SDS011;23366;52.498;13.446;2023-07-20T08:34:50;2.63;;;0.32;;
37517;SDS011;23366;52.498;13.446;2023-07-20T08:37:16;1.38;;;0.47;;
37517;SDS011;23366;52.498;13.446;2023-07-20T08:39:41;0.73;;;0.45;;
37517;SDS011;23366;52.498;13.446;2023-07-20T08:42:07;1.15;;;0.43;;
37517;SDS011;23366;52.498;13.446;2023-07-20T08:44:34;1.17;;;0.50;;
37517;SDS011;23366;52.498;13.446;2023-07-20T08:47:02;1.58;;;1.17;;
37517;SDS011;23366;52.498;13.446;2023-07-20T08:49:29;3.03;;;0.25;;
37517;SDS011;23366;52.498;13.446;2023-07-20T08:51:58;0.60;;;0.20;;
37517;SDS011;23366;52.498;13.446;2023-07-20T08:54:24;0.90;;;0.40;;
37517;SDS011;23366;52.498;13.446;2023-07-20T08:56:54;0.28;;;0.20;;
37517;SDS011;23366;52.498;13.446;2023-07-20T08:59:22;1.23;;;0.40;;
37517;SDS011;23366;52.498;13.446;2023-07-20T09:01:49;0.73;;;0.50;;
37517;SDS011;23366;52.498;13.446;2023-07-20T09:04:17;3.42;;;0.60;;
37517;SDS011;23366;52.498;13.446;2023-07-20T09:06:43;0.90;;;0.43;;
37517;SDS011;23366;52.498;13.446;2023-07-20T09:09:08;0.77;;;0.40;;
37517;SDS011;23366;52.498;13.446;2023-07-20T09:11:33;0.80;;;0.52;;
37517;SDS011;23366;52.498;13.446;2023-07-20T09:14:05;0.70;;;0.40;;
37517;SDS011;23366;52.498;13.446;2023-07-20T09:16:32;1.27;;;0.38;;
37517;SDS011;23366;52.498;13.446;2023-07-20T09:19:11;2.38;;;0.45;;
37517;SDS011;23366;52.498;13.446;2023-07-20T09:21:36;2.40;;;0.68;;
37517;SDS011;23366;52.498;13.446;2023-07-20T09:24:02;0.57;;;0.40;;
37517;SDS011;23366;52.498;13.446;2023-07-20T09:26:27;0.80;;;0.32;;
37517;SDS011;23366;52.498;13.446;2023-07-20T09:28:53;0.45;;;0.30;;
37517;SDS011;23366;52.498;13.446;2023-07-20T09:31:21;0.82;;;0.35;;
37517;SDS011;23366;52.498;13.446;2023-07-20T09:33:47;0.50;;;0.30;;
37517;SDS011;23366;52.498;13.446;2023-07-20T09:36:14;0.47;;;0.30;;
37517;SDS011;23366;52.498;13.446;2023-07-20T09:38:43;2.65;;;0.52;;
37517;SDS011;23366;52.498;13.446;2023-07-20T09:41:15;1.65;;;0.47;;
37517;SDS011;23366;52.498;13.446;2023-07-20T09:43:43;0.73;;;0.30;;
37517;SDS011;23366;52.498;13.446;2023-07-20T09:46:10;1.48;;;0.45;;
37517;SDS011;23366;52.498;13.446;2023-07-20T09:48:36;1.25;;;0.45;;
37517;SDS011;23366;52.498;13.446;2023-07-20T09:51:01;0.80;;;0.30;;
37517;SDS011;23366;52.498;13.446;2023-07-20T09:53:32;1.20;;;0.40;;
37517;SDS011;23366;52.498;13.446;2023-07-20T09:55:58;0.68;;;0.25;;
37517;SDS011;23366;52.498;13.446;2023-07-20T09:58:25;0.73;;;0.50;;
37517;SDS011;23366;52.498;13.446;2023-07-20T10:00:52;0.82;;;0.43;;
37517;SDS011;23366;52.498;13.446;2023-07-20T10:03:22;0.57;;;0.40;;
37517;SDS011;23366;52.498;13.446;2023-07-20T10:05:57;0.85;;;0.75;;
37517;SDS011;23366;52.498;13.446;2023-07-20T10:08:28;0.88;;;0.60;;
37517;SDS011;23366;52.498;13.446;2023-07-20T10:10:59;0.95;;;0.80;;
37517;SDS011;23366;52.498;13.446;2023-07-20T10:13:27;1.85;;;0.77;;
37517;SDS011;23366;52.498;13.446;2023-07-20T10:15:58;3.55;;;1.60;;
37517;SDS011;23366;52.498;13.446;2023-07-20T10:18:30;3.38;;;1.58;;
37517;SDS011;23366;52.498;13.446;2023-07-20T10:21:17;2.03;;;1.00;;
37517;SDS011;23366;52.498;13.446;2023-07-20T10:23:44;1.95;;;0.80;;
37517;SDS011;23366;52.498;13.446;2023-07-20T10:26:11;0.95;;;0.70;;
37517;SDS011;23366;52.498;13.446;2023-07-20T10:28:38;3.58;;;1.35;;
37517;SDS011;23366;52.498;13.446;2023-07-20T10:31:04;0.75;;;0.75;;
37517;SDS011;23366;52.498;13.446;2023-07-20T10:33:32;1.27;;;0.50;;
37517;SDS011;23366;52.498;13.446;2023-07-20T10:36:01;2.60;;;0.95;;
37517;SDS011;23366;52.498;13.446;2023-07-20T10:38:41;1.55;;;0.77;;
37517;SDS011;23366;52.498;13.446;2023-07-20T10:41:17;1.10;;;0.63;;
37517;SDS011;23366;52.498;13.446;2023-07-20T10:44:04;0.98;;;0.57;;
37517;SDS011;23366;52.498;13.446;2023-07-20T10:46:33;0.68;;;0.68;;
37517;SDS011;23366;52.498;13.446;2023-07-20T10:49:13;1.50;;;0.88;;
37517;SDS011;23366;52.498;13.446;2023-07-20T10:51:43;3.90;;;0.70;;
37517;SDS011;23366;52.498;13.446;2023-07-20T10:57:12;0.75;;;0.52;;
37517;SDS011;23366;52.498;13.446;2023-07-20T10:59:53;1.05;;;0.75;;
37517;SDS011;23366;52.498;13.446;2023-07-20T11:02:42;0.82;;;0.55;;
37517;SDS011;23366;52.498;13.446;2023-07-20T11:05:08;1.05;;;0.70;;
37517;SDS011;23366;52.498;13.446;2023-07-20T11:07:57;3.20;;;0.50;;
37517;SDS011;23366;52.498;13.446;2023-07-20T11:10:22;0.98;;;0.70;;
37517;SDS011;23366;52.498;13.446;2023-07-20T11:15:47;0.68;;;0.55;;
37517;SDS011;23366;52.498;13.446;2023-07-20T11:18:25;1.38;;;0.80;;
37517;SDS011;23366;52.498;13.446;2023-07-20T11:20:52;1.13;;;0.80;;
37517;SDS011;23366;52.498;13.446;2023-07-20T11:23:19;1.30;;;0.77;;
37517;SDS011;23366;52.498;13.446;2023-07-20T11:25:45;3.78;;;1.02;;
37517;SDS011;23366;52.498;13.446;2023-07-20T11:28:11;1.80;;;0.65;;
37517;SDS011;23366;52.498;13.446;2023-07-20T11:30:37;2.17;;;0.68;;
37517;SDS011;23366;52.498;13.446;2023-07-20T11:33:04;1.65;;;0.50;;
37517;SDS011;23366;52.498;13.446;2023-07-20T11:35:30;1.02;;;0.50;;
37517;SDS011;23366;52.498;13.446;2023-07-20T11:37:56;1.02;;;0.60;;
37517;SDS011;23366;52.498;13.446;2023-07-20T11:40:22;0.63;;;0.40;;
37517;SDS011;23366;52.498;13.446;2023-07-20T11:42:48;2.55;;;0.50;;
37517;SDS011;23366;52.498;13.446;2023-07-20T11:45:15;0.60;;;0.40;;
37517;SDS011;23366;52.498;13.446;2023-07-20T11:47:42;1.23;;;0.52;;
37517;SDS011;23366;52.498;13.446;2023-07-20T11:50:11;0.65;;;0.55;;
37517;SDS011;23366;52.498;13.446;2023-07-20T11:52:38;0.95;;;0.50;;
37517;SDS011;23366;52.498;13.446;2023-07-20T11:55:05;1.27;;;0.50;;
37517;SDS011;23366;52.498;13.446;2023-07-20T11:57:31;0.50;;;0.30;;
37517;SDS011;23366;52.498;13.446;2023-07-20T11:59:58;1.48;;;0.63;;
37517;SDS011;23366;52.498;13.446;2023-07-20T12:02:35;1.50;;;0.70;;
37517;SDS011;23366;52.498;13.446;2023-07-20T12:05:03;0.85;;;0.35;;
37517;SDS011;23366;52.498;13.446;2023-07-20T12:07:29;0.93;;;0.40;;
37517;SDS011;23366;52.498;13.446;2023-07-20T12:10:06;0.88;;;0.38;;
37517;SDS011;23366;52.498;13.446;2023-07-20T12:12:39;0.93;;;0.52;;
37517;SDS011;23366;52.498;13.446;2023-07-20T12:15:27;2.17;;;0.70;;
37517;SDS011;23366;52.498;13.446;2023-07-20T12:17:55;1.00;;;0.60;;
37517;SDS011;23366;52.498;13.446;2023-07-20T12:20:32;1.02;;;0.55;;
37517;SDS011;23366;52.498;13.446;2023-07-20T12:23:07;0.95;;;0.50;;
37517;SDS011;23366;52.498;13.446;2023-07-20T12:25:38;0.73;;;0.40;;
37517;SDS011;23366;52.498;13.446;2023-07-20T12:28:05;0.60;;;0.40;;
37517;SDS011;23366;52.498;13.446;2023-07-20T12:30:32;1.95;;;0.50;;
37517;SDS011;23366;52.498;13.446;2023-07-20T12:32:58;1.10;;;0.50;;
37517;SDS011;23366;52.498;13.446;2023-07-20T12:35:23;3.53;;;0.68;;
37517;SDS011;23366;52.498;13.446;2023-07-20T12:37:49;1.70;;;0.65;;
37517;SDS011;23366;52.498;13.446;2023-07-20T12:40:16;1.10;;;0.50;;
37517;SDS011;23366;52.498;13.446;2023-07-20T12:42:42;23.00;;;1.20;;
37517;SDS011;23366;52.498;13.446;2023-07-20T12:45:08;3.00;;;1.05;;
37517;SDS011;23366;52.498;13.446;2023-07-20T12:47:33;2.50;;;0.70;;
37517;SDS011;23366;52.498;13.446;2023-07-20T12:49:59;1.00;;;0.80;;
37517;SDS011;23366;52.498;13.446;2023-07-20T12:52:25;1.67;;;0.88;;
37517;SDS011;23366;52.498;13.446;2023-07-20T12:54:50;2.08;;;1.23;;
37517;SDS011;23366;52.498;13.446;2023-07-20T12:57:16;2.08;;;1.20;;
37517;SDS011;23366;52.498;13.446;2023-07-20T12:59:42;2.55;;;0.57;;
37517;SDS011;23366;52.498;13.446;2023-07-20T13:02:07;0.50;;;0.30;;
37517;SDS011;23366;52.498;13.446;2023-07-20T13:04:33;1.73;;;0.93;;
37517;SDS011;23366;52.498;13.446;2023-07-20T13:06:58;1.40;;;0.70;;
37517;SDS011;23366;52.498;13.446;2023-07-20T13:09:24;1.70;;;1.17;;
37517;SDS011;23366;52.498;13.446;2023-07-20T13:11:50;1.48;;;1.25;;
37517;SDS011;23366;52.498;13.446;2023-07-20T13:14:17;1.83;;;1.42;;
37517;SDS011;23366;52.498;13.446;2023-07-20T13:16:42;4.05;;;1.92;;
37517;SDS011;23366;52.498;13.446;2023-07-20T13:19:08;2.95;;;1.27;;
37517;SDS011;23366;52.498;13.446;2023-07-20T13:21:34;1.33;;;0.75;;
37517;SDS011;23366;52.498;13.446;2023-07-20T13:23:59;2.47;;;1.48;;
37517;SDS011;23366;52.498;13.446;2023-07-20T13:26:24;2.17;;;0.90;;
37517;SDS011;23366;52.498;13.446;2023-07-20T13:28:50;1.83;;;1.25;;
37517;SDS011;23366;52.498;13.446;2023-07-20T13:31:16;3.35;;;1.23;;
37517;SDS011;23366;52.498;13.446;2023-07-20T13:33:42;1.73;;;1.10;;
37517;SDS011;23366;52.498;13.446;2023-07-20T13:36:07;2.65;;;1.25;;
37517;SDS011;23366;52.498;13.446;2023-07-20T13:38:33;2.80;;;0.80;;
37517;SDS011;23366;52.498;13.446;2023-07-20T13:40:58;1.48;;;1.00;;
37517;SDS011;23366;52.498;13.446;2023-07-20T13:43:24;1.38;;;0.95;;
37517;SDS011;23366;52.498;13.446;2023-07-20T13:45:50;2.50;;;0.98;;
37517;SDS011;23366;52.498;13.446;2023-07-20T13:48:15;1.52;;;0.77;;
37517;SDS011;23366;52.498;13.446;2023-07-20T13:50:44;1.15;;;0.70;;
37517;SDS011;23366;52.498;13.446;2023-07-20T13:53:10;2.55;;;0.93;;
37517;SDS011;23366;52.498;13.446;2023-07-20T13:55:35;2.35;;;0.90;;
37517;SDS011;23366;52.498;13.446;2023-07-20T13:58:02;2.83;;;1.50;;
37517;SDS011;23366;52.498;13.446;2023-07-20T14:00:27;2.53;;;1.33;;
37517;SDS011;23366;52.498;13.446;2023-07-20T14:02:57;0.90;;;0.60;;
37517;SDS011;23366;52.498;13.446;2023-07-20T14:05:23;1.67;;;1.02;;
37517;SDS011;23366;52.498;13.446;2023-07-20T14:07:49;1.20;;;0.80;;
37517;SDS011;23366;52.498;13.446;2023-07-20T14:10:15;0.30;;;0.20;;
37517;SDS011;23366;52.498;13.446;2023-07-20T14:12:40;0.73;;;0.50;;
37517;SDS011;23366;52.498;13.446;2023-07-20T14:15:06;1.48;;;0.68;;
37517;SDS011;23366;52.498;13.446;2023-07-20T14:17:31;2.28;;;1.20;;
37517;SDS011;23366;52.498;13.446;2023-07-20T14:19:59;2.10;;;1.17;;
37517;SDS011;23366;52.498;13.446;2023-07-20T14:22:25;1.20;;;0.80;;
37517;SDS011;23366;52.498;13.446;2023-07-20T14:24:50;0.47;;;0.30;;
37517;SDS011;23366;52.498;13.446;2023-07-20T14:27:16;4.50;;;0.60;;
37517;SDS011;23366;52.498;13.446;2023-07-20T14:29:42;1.48;;;0.60;;
37517;SDS011;23366;52.498;13.446;2023-07-20T14:32:07;1.35;;;0.68;;
37517;SDS011;23366;52.498;13.446;2023-07-20T14:34:33;1.63;;;0.80;;
37517;SDS011;23366;52.498;13.446;2023-07-20T14:37:01;2.15;;;0.60;;
37517;SDS011;23366;52.498;13.446;2023-07-20T14:39:27;1.90;;;0.88;;
37517;SDS011;23366;52.498;13.446;2023-07-20T14:41:53;0.93;;;0.77;;
37517;SDS011;23366;52.498;13.446;2023-07-20T14:44:18;0.88;;;0.57;;
37517;SDS011;23366;52.498;13.446;2023-07-20T14:46:45;1.08;;;0.77;;